• Join FlightAware (Why Join?)
  • Login
  • US Flag 
12:16PM EST


 

Airport Tracker/Info


-or-


 

Live Flight TrackerFlight Track Log ✈ N312RM ✈ 02-Aug-2014 ✈ 54J - KORL

Flight Track Log - Related Links

Times and Time Zones

All times are in EDT time to prevent confusion due to time zone crossing. See the N312RM flight status page for this flight to view local times or setup timezone preferences in your user account.

Time Position Orientation Groundspeed Altitude Reporting Facility
EDT Latitude Longitude Course Direction KTS MPH feet Rate Location/Type
02:11PM 30.7619 -86.2069 90° East 105 121 1,600  Level Jacksonville Center
02:12PM 30.7586 -86.1753 97° East 84 97 2,000 331 Climbing Jacksonville Center
02:13PM 30.7572 -86.1464 93° East 89 102 2,300 298 Climbing Jacksonville Center
02:14PM 30.7561 -86.1125 92° East 102 117 2,600 295 Climbing Jacksonville Center
02:15PM 30.7333 -85.9224 90° East  Level FlightAware Approximate
02:15PM 30.7547 -86.0811 93° East 99 114 2,900  Level Jacksonville Center
02:16PM 30.7333 -85.8843 90° East  Level FlightAware Approximate
02:16PM 30.7578 -86.0497 84° East 99 114 3,200  Level Jacksonville Center
02:17PM 30.7606 -86.0158 85° East 100 115 3,500 347 Climbing Jacksonville Center
02:18PM 30.7614 -85.9844 88° East 101 116 3,900 397 Climbing Jacksonville Center
02:19PM 30.7642 -85.9508 84° East 103 119 4,300 344 Climbing Jacksonville Center
02:20PM 30.7672 -85.9194 84° East 104 120 4,600 298 Climbing Jacksonville Center
02:21PM 30.7681 -85.8831 88° East 103 119 4,900 298 Climbing Jacksonville Center
02:22PM 30.7689 -85.8494 88° East 106 122 5,200 298 Climbing Jacksonville Center
02:23PM 30.7675 -85.8131 93° East 114 131 5,500 298 Climbing Jacksonville Center
02:24PM 30.7706 -85.7744 85° East 115 132 5,800 246 Climbing Jacksonville Center
02:25PM 30.7733 -85.7358 85° East 118 136 6,000 298 Climbing Jacksonville Center
02:26PM 30.7722 -85.6997 92° East 116 133 6,400 347 Climbing Jacksonville Center
02:27PM 30.7731 -85.6608 89° East 117 135 6,700 298 Climbing Jacksonville Center
02:28PM 30.7717 -85.6222 92° East 115 132 7,000 149 Climbing Jacksonville Center
02:29PM 30.7725 -85.5811 89° East 131 151 7,000  Level Jacksonville Center
02:30PM 30.7736 -85.5375 88° East 137 158 7,000  Level Jacksonville Center
02:31PM 30.7764 -85.4942 86° East 135 155 7,000  Level Jacksonville Center
02:32PM 30.7794 -85.4483 86° East 136 157 7,000  Level Jacksonville Center
02:33PM 30.7825 -85.4050 85° East 137 158 7,000  Level Jacksonville Center
02:34PM 30.7833 -85.3639 89° East 138 159 7,000  Level Jacksonville Center
02:35PM 30.7822 -85.3178 92° East 134 154 7,000  Level Jacksonville Center
02:36PM 30.7831 -85.2719 89° East 133 153 7,000  Level Jacksonville Center
03:14PM 30.2103 -83.8950 130° Southeast 133 153 7,000  Level Jacksonville Center
03:15PM 30.2733 -83.9812 130° Southeast  Level FlightAware Approximate
03:15PM 30.1878 -83.8633 129° Southeast 133 153 7,000  Level Jacksonville Center
03:16PM 30.2523 -83.9521 130° Southeast  Level FlightAware Approximate
03:16PM 30.1669 -83.8344 130° Southeast 133 153 7,000  Level Jacksonville Center
03:17PM 30.2312 -83.9230 130° Southeast  Level FlightAware Approximate
03:17PM 30.1442 -83.8031 130° Southeast 133 153 7,000  Level Jacksonville Center
03:18PM 30.2102 -83.8939 130° Southeast  Level FlightAware Approximate
03:18PM 30.1217 -83.7692 128° Southeast 133 153 7,000  Level Jacksonville Center
03:19PM 30.0967 -83.7353 130° Southeast 133 153 7,000  Level Jacksonville Center
03:20PM 30.0761 -83.7014 125° Southeast 133 153 7,000  Level Jacksonville Center
03:21PM 30.0533 -83.6725 132° Southeast 133 153 7,000  Level Jacksonville Center
03:22PM 30.0283 -83.6411 133° Southeast 133 153 7,000  Level Jacksonville Center
03:23PM 30.0078 -83.6097 127° Southeast 128 147 7,000  Level Jacksonville Center
03:24PM 29.9828 -83.5783 133° Southeast 128 147 7,000  Level Jacksonville Center
03:25PM 29.9600 -83.5472 130° Southeast 128 147 7,000  Level Jacksonville Center
03:26PM 29.9392 -83.5158 127° Southeast 128 147 7,000  Level Jacksonville Center
03:27PM 29.9164 -83.4844 130° Southeast 133 153 7,000  Level Jacksonville Center
03:28PM 29.8936 -83.4531 130° Southeast 133 153 7,000  Level Jacksonville Center
03:29PM 29.8708 -83.4219 130° Southeast 133 153 7,000  Level Jacksonville Center
03:30PM 29.8481 -83.3883 128° Southeast 133 153 7,000  Level Jacksonville Center
03:31PM 29.8231 -83.3547 131° Southeast 133 153 7,000  Level Jacksonville Center
03:32PM 29.8003 -83.3258 132° Southeast 133 153 7,000  Level Jacksonville Center
03:33PM 29.7772 -83.2922 128° Southeast 133 153 7,000  Level Jacksonville Center
03:34PM 29.7544 -83.2611 130° Southeast 133 153 7,000 -50 Level Jacksonville Center
03:35PM 29.7294 -83.2297 133° Southeast 133 153 6,900 -50 Descending Jacksonville Center
03:36PM 29.7067 -83.2011 133° Southeast 133 153 6,900  Level Jacksonville Center
03:37PM 29.6836 -83.1675 128° Southeast 133 153 6,900  Level Jacksonville Center
03:38PM 29.6608 -83.1339 128° Southeast 133 153 6,900  Level Jacksonville Center
03:39PM 29.6358 -83.1028 133° Southeast 133 153 6,900  Level Jacksonville Center
03:39PM 29.6233 -83.0886 135° Southeast 130 150 6,900  Level Jacksonville Center
03:40PM 29.6131 -83.0694 122° Southeast 133 153 6,900  Level Jacksonville Center
03:40PM 29.6025 -83.0575 135° Southeast 132 152 6,900  Level Jacksonville Center
03:41PM 29.5919 -83.0383 122° Southeast 133 153 6,900  Level Jacksonville Center
03:41PM 29.5836 -83.0217 120° Southeast 127 146 6,900  Level Jacksonville Center
03:42PM 29.5753 -83.0025 117° Southeast 113 130 6,900  Level Jacksonville Center
03:42PM 29.5672 -82.9833 116° Southeast 128 147 6,900  Level Jacksonville Center
03:43PM 29.5586 -82.9642 117° Southeast 122 140 6,900  Level Jacksonville Center
03:43PM 29.5483 -82.9450 122° Southeast 128 147 6,900  Level Jacksonville Center
03:44PM 29.5400 -82.9283 120° Southeast 121 139 6,900 109 Level Jacksonville Center
03:44PM 29.5317 -82.9117 120° Southeast 129 148 7,000 100 Climbing Jacksonville Center
03:45PM 29.5253 -82.8925 111° Southeast 122 140 7,000  Level Jacksonville Center
03:45PM 29.5150 -82.8783 130° Southeast 128 147 7,000  Level Jacksonville Center
03:46PM 29.5086 -82.8567 109° East 122 140 7,000  Level Jacksonville Center
03:46PM 29.4983 -82.8425 130° Southeast 128 147 7,000  Level Jacksonville Center
03:47PM 29.4919 -82.8233 111° Southeast 127 146 7,000  Level Jacksonville Center
03:47PM 29.4772 -82.8042 131° Southeast 127 146 7,000  Level Jacksonville Center
03:48PM 29.4731 -82.7900 109° East 127 146 7,000  Level Jacksonville Center
03:48PM 29.4606 -82.7639 119° Southeast 126 145 7,000  Level Jacksonville Center
03:49PM 29.4564 -82.7567 124° Southeast 121 139 7,000  Level Jacksonville Center
03:49PM 29.4417 -82.7353 128° Southeast 124 143 7,000  Level Jacksonville Center
03:50PM 29.4231 -82.6994 121° Southeast 128 147 7,000  Level Jacksonville Center
03:51PM 29.4000 -82.6614 125° Southeast 129 148 7,000 -47 Level Jacksonville Center
03:52PM 29.3831 -82.6256 118° Southeast 127 146 6,900  Descending Jacksonville Center
03:53PM 29.3664 -82.5922 120° Southeast 128 147 7,000 49 Climbing Jacksonville Center
03:54PM 29.3475 -82.5567 121° Southeast 128 147 7,000  Level Jacksonville Center
03:55PM 29.3264 -82.5161 121° Southeast 129 148 7,000  Level Jacksonville Center
03:56PM 29.3203 -82.4878 104° East 127 146 7,000  Level Jacksonville Center
03:57PM 29.3094 -82.4450 106° East 128 147 7,000  Level Jacksonville Center
03:58PM 29.2886 -82.4117 126° Southeast 124 143 7,000 -98 Level Jacksonville Center
03:59PM 29.2656 -82.3808 131° Southeast 126 145 6,800 -246 Descending Jacksonville Center
04:00PM 29.2425 -82.3500 131° Southeast 127 146 6,500 -295 Descending Jacksonville Center
04:01PM 29.2214 -82.3167 126° Southeast 130 150 6,200 -295 Descending Jacksonville Center
04:02PM 29.2025 -82.2811 121° Southeast 122 140 5,900 -344 Descending Jacksonville Center
04:03PM 29.1836 -82.2503 125° Southeast 123 142 5,500 -393 Descending Jacksonville Center
04:04PM 29.1625 -82.2219 130° Southeast 114 131 5,100 -248 Descending Jacksonville Center
04:05PM 29.1414 -82.1936 130° Southeast 117 135 5,000 -50 Descending Jacksonville Center
04:06PM 29.1203 -82.1628 128° Southeast 122 140 5,000 -49 Level Jacksonville Center
04:07PM 29.0994 -82.1297 126° Southeast 123 142 4,900 -47 Descending Jacksonville Center
04:09PM 29.0742 -82.0967 131° Southeast 119 137 4,900 47 Level Jacksonville Center
04:10PM 29.0550 -82.0658 125° Southeast 119 137 5,000 34 Climbing Jacksonville Center
04:11PM 29.0167 -82.0000 124° Southeast 119 137 5,000  Level Orlando TRACON
04:13PM 29.0000 -81.9667 120° Southeast 124 143 5,000  Level Orlando TRACON
04:14PM 28.9667 -81.9333 139° Southeast 121 139 5,000 -50 Level Orlando TRACON
04:15PM 28.9500 -81.9167 139° Southeast 126 145 4,900  Descending Orlando TRACON
04:15PM 28.9333 -81.8833 120° Southeast 119 137 5,000 50 Climbing Orlando TRACON
04:17PM 28.9167 -81.8500 120° Southeast 121 139 5,000  Level Orlando TRACON
04:18PM 28.8833 -81.8167 139° Southeast 123 142 5,000  Level Orlando TRACON
04:19PM 28.8500 -81.8000 156° South 125 144 5,000  Level Orlando TRACON
04:19PM 28.8333 -81.7667 120° Southeast 126 145 5,000 -53 Level Orlando TRACON
04:20PM 28.8000 -81.7500 156° South 126 145 4,900 -190 Descending Orlando TRACON
04:22PM 28.7833 -81.7167 120° Southeast 125 144 4,600 -250 Descending Orlando TRACON
04:22PM 28.7667 -81.7000 139° Southeast 117 135 4,400 -222 Descending Orlando TRACON
04:23PM 28.7333 -81.6667 139° Southeast 112 129 4,200 -300 Descending Orlando TRACON
04:24PM 28.7167 -81.6500 139° Southeast 114 131 3,800 -333 Descending Orlando TRACON
04:25PM 28.6833 -81.6167 139° Southeast 118 136 3,500 -300 Descending Orlando TRACON
04:26PM 28.6667 -81.6000 139° Southeast 116 133 3,200 -283 Descending Orlando TRACON
04:28PM 28.6333 -81.5667 139° Southeast 113 130 2,900 -286 Descending Orlando TRACON
04:29PM 28.6167 -81.5500 139° Southeast 117 135 2,600 -303 Descending Orlando TRACON
04:30PM 28.5833 -81.5167 139° Southeast 108 124 2,300 -298 Descending Orlando TRACON
04:31PM 28.5667 -81.5000 139° Southeast 101 116 2,000 -313 Descending Orlando TRACON
04:31PM 28.5667 -81.4667 90° East 102 117 1,700 -263 Descending Orlando TRACON
04:32PM 28.5500 -81.4500 139° Southeast 102 117 1,500 -150 Descending Orlando TRACON
04:33PM 28.5333 -81.4167 120° Southeast 94 108 1,400 -150 Descending Orlando TRACON
04:34PM 28.5333 -81.3833 90° East 87 100 1,200 -300 Descending Orlando TRACON
04:35PM 28.5333 -81.3667 90° East 72 83 800 -429 Descending Orlando TRACON
04:37PM 28.5333 -81.3500 90° East 63 72 300 -455 Descending Orlando TRACON
04:39PM 28.5455 -81.3329 124° Southeast  Level Estimated
04:46PM 28.5455 -81.3329 124° Southeast  Level Estimated
04:47PM 28.5455 -81.3329 130° Southeast  Level Estimated
04:48PM 28.5455 -81.3329 130° Southeast  Level Estimated